sensor_id;sensor_type;location;lat;lon;timestamp;P1;durP1;ratioP1;P2;durP2;ratioP2
9520;SDS011;4798;41.574;23.734;2024-02-15T00:01:20;2.40;;;0.50;;
9520;SDS011;4798;41.574;23.734;2024-02-15T00:03:49;0.50;;;0.50;;
9520;SDS011;4798;41.574;23.734;2024-02-15T00:06:17;0.43;;;0.40;;
9520;SDS011;4798;41.574;23.734;2024-02-15T00:08:47;0.40;;;0.40;;
9520;SDS011;4798;41.574;23.734;2024-02-15T00:11:16;0.67;;;0.67;;
9520;SDS011;4798;41.574;23.734;2024-02-15T00:13:46;0.40;;;0.30;;
9520;SDS011;4798;41.574;23.734;2024-02-15T00:16:15;0.57;;;0.30;;
9520;SDS011;4798;41.574;23.734;2024-02-15T00:18:43;0.30;;;0.20;;
9520;SDS011;4798;41.574;23.734;2024-02-15T00:21:12;0.40;;;0.20;;
9520;SDS011;4798;41.574;23.734;2024-02-15T00:23:41;0.80;;;0.80;;
9520;SDS011;4798;41.574;23.734;2024-02-15T00:26:10;0.60;;;0.33;;
9520;SDS011;4798;41.574;23.734;2024-02-15T00:28:41;0.50;;;0.30;;
9520;SDS011;4798;41.574;23.734;2024-02-15T00:31:11;0.60;;;0.50;;
9520;SDS011;4798;41.574;23.734;2024-02-15T00:33:39;0.87;;;0.40;;
9520;SDS011;4798;41.574;23.734;2024-02-15T00:36:09;0.40;;;0.40;;
9520;SDS011;4798;41.574;23.734;2024-02-15T00:38:39;0.57;;;0.57;;
9520;SDS011;4798;41.574;23.734;2024-02-15T00:41:09;0.40;;;0.20;;
9520;SDS011;4798;41.574;23.734;2024-02-15T00:43:38;12.83;;;0.93;;
9520;SDS011;4798;41.574;23.734;2024-02-15T00:46:07;0.50;;;0.20;;
9520;SDS011;4798;41.574;23.734;2024-02-15T00:48:37;0.30;;;0.20;;
9520;SDS011;4798;41.574;23.734;2024-02-15T00:51:07;0.53;;;0.33;;
9520;SDS011;4798;41.574;23.734;2024-02-15T00:53:36;0.30;;;0.20;;
9520;SDS011;4798;41.574;23.734;2024-02-15T00:56:05;0.60;;;0.40;;
9520;SDS011;4798;41.574;23.734;2024-02-15T00:58:34;0.60;;;0.40;;
9520;SDS011;4798;41.574;23.734;2024-02-15T01:01:02;0.30;;;0.20;;
9520;SDS011;4798;41.574;23.734;2024-02-15T01:03:31;0.50;;;0.30;;
9520;SDS011;4798;41.574;23.734;2024-02-15T01:06:01;1.13;;;0.80;;
9520;SDS011;4798;41.574;23.734;2024-02-15T01:08:30;0.40;;;0.30;;
9520;SDS011;4798;41.574;23.734;2024-02-15T01:10:59;0.40;;;0.30;;
9520;SDS011;4798;41.574;23.734;2024-02-15T01:13:27;2.23;;;0.50;;
9520;SDS011;4798;41.574;23.734;2024-02-15T01:15:56;0.50;;;0.50;;
9520;SDS011;4798;41.574;23.734;2024-02-15T01:18:25;0.50;;;0.40;;
9520;SDS011;4798;41.574;23.734;2024-02-15T01:20:53;0.40;;;0.30;;
9520;SDS011;4798;41.574;23.734;2024-02-15T01:23:24;0.40;;;0.30;;
9520;SDS011;4798;41.574;23.734;2024-02-15T01:25:53;0.30;;;0.20;;
9520;SDS011;4798;41.574;23.734;2024-02-15T01:28:22;0.47;;;0.40;;
9520;SDS011;4798;41.574;23.734;2024-02-15T01:30:50;0.40;;;0.30;;
9520;SDS011;4798;41.574;23.734;2024-02-15T01:33:21;0.40;;;0.40;;
9520;SDS011;4798;41.574;23.734;2024-02-15T01:35:50;0.40;;;0.30;;
9520;SDS011;4798;41.574;23.734;2024-02-15T01:38:18;0.40;;;0.20;;
9520;SDS011;4798;41.574;23.734;2024-02-15T01:40:48;0.40;;;0.20;;
9520;SDS011;4798;41.574;23.734;2024-02-15T01:43:17;0.40;;;0.40;;
9520;SDS011;4798;41.574;23.734;2024-02-15T01:45:45;0.43;;;0.40;;
9520;SDS011;4798;41.574;23.734;2024-02-15T01:48:15;0.30;;;0.20;;
9520;SDS011;4798;41.574;23.734;2024-02-15T01:50:44;0.30;;;0.20;;
9520;SDS011;4798;41.574;23.734;2024-02-15T01:53:14;0.57;;;0.50;;
9520;SDS011;4798;41.574;23.734;2024-02-15T01:55:44;0.30;;;0.30;;
9520;SDS011;4798;41.574;23.734;2024-02-15T01:58:14;0.47;;;0.40;;
9520;SDS011;4798;41.574;23.734;2024-02-15T02:00:43;0.47;;;0.47;;
9520;SDS011;4798;41.574;23.734;2024-02-15T02:03:12;0.30;;;0.30;;
9520;SDS011;4798;41.574;23.734;2024-02-15T02:05:43;0.50;;;0.30;;
9520;SDS011;4798;41.574;23.734;2024-02-15T02:08:11;0.40;;;0.30;;
9520;SDS011;4798;41.574;23.734;2024-02-15T02:10:40;0.33;;;0.27;;
9520;SDS011;4798;41.574;23.734;2024-02-15T02:13:09;0.30;;;0.20;;
9520;SDS011;4798;41.574;23.734;2024-02-15T02:15:39;0.30;;;0.20;;
9520;SDS011;4798;41.574;23.734;2024-02-15T02:18:08;0.40;;;0.30;;
9520;SDS011;4798;41.574;23.734;2024-02-15T02:20:37;2.20;;;0.93;;
9520;SDS011;4798;41.574;23.734;2024-02-15T02:23:07;0.40;;;0.23;;
9520;SDS011;4798;41.574;23.734;2024-02-15T02:25:40;0.30;;;0.20;;
9520;SDS011;4798;41.574;23.734;2024-02-15T02:28:09;0.30;;;0.20;;
9520;SDS011;4798;41.574;23.734;2024-02-15T02:30:38;0.40;;;0.30;;
9520;SDS011;4798;41.574;23.734;2024-02-15T02:33:10;0.40;;;0.30;;
9520;SDS011;4798;41.574;23.734;2024-02-15T02:35:45;0.30;;;0.20;;
9520;SDS011;4798;41.574;23.734;2024-02-15T02:38:15;0.30;;;0.20;;
9520;SDS011;4798;41.574;23.734;2024-02-15T02:40:45;0.40;;;0.30;;
9520;SDS011;4798;41.574;23.734;2024-02-15T02:43:13;0.50;;;0.20;;
9520;SDS011;4798;41.574;23.734;2024-02-15T02:45:42;0.40;;;0.33;;
9520;SDS011;4798;41.574;23.734;2024-02-15T02:48:12;0.50;;;0.50;;
9520;SDS011;4798;41.574;23.734;2024-02-15T02:50:41;0.30;;;0.20;;
9520;SDS011;4798;41.574;23.734;2024-02-15T02:53:09;0.53;;;0.33;;
9520;SDS011;4798;41.574;23.734;2024-02-15T02:55:40;0.67;;;0.67;;
9520;SDS011;4798;41.574;23.734;2024-02-15T02:58:10;0.30;;;0.20;;
9520;SDS011;4798;41.574;23.734;2024-02-15T03:00:39;1.00;;;0.40;;
9520;SDS011;4798;41.574;23.734;2024-02-15T03:03:09;0.50;;;0.50;;
9520;SDS011;4798;41.574;23.734;2024-02-15T03:05:38;0.90;;;0.90;;
9520;SDS011;4798;41.574;23.734;2024-02-15T03:08:08;1.10;;;0.83;;
9520;SDS011;4798;41.574;23.734;2024-02-15T03:10:36;0.80;;;0.80;;
9520;SDS011;4798;41.574;23.734;2024-02-15T03:13:05;0.93;;;0.93;;
9520;SDS011;4798;41.574;23.734;2024-02-15T03:15:36;0.57;;;0.57;;
9520;SDS011;4798;41.574;23.734;2024-02-15T03:18:04;0.43;;;0.37;;
9520;SDS011;4798;41.574;23.734;2024-02-15T03:20:34;0.70;;;0.40;;
9520;SDS011;4798;41.574;23.734;2024-02-15T03:23:05;0.30;;;0.20;;
9520;SDS011;4798;41.574;23.734;2024-02-15T03:25:34;0.30;;;0.20;;
9520;SDS011;4798;41.574;23.734;2024-02-15T03:28:03;0.30;;;0.30;;
9520;SDS011;4798;41.574;23.734;2024-02-15T03:30:32;0.60;;;0.30;;
9520;SDS011;4798;41.574;23.734;2024-02-15T03:33:03;0.30;;;0.20;;
9520;SDS011;4798;41.574;23.734;2024-02-15T03:35:33;1.10;;;0.90;;
9520;SDS011;4798;41.574;23.734;2024-02-15T03:38:02;0.30;;;0.30;;
9520;SDS011;4798;41.574;23.734;2024-02-15T03:40:31;0.40;;;0.30;;
9520;SDS011;4798;41.574;23.734;2024-02-15T03:43:00;0.40;;;0.30;;
9520;SDS011;4798;41.574;23.734;2024-02-15T03:45:33;0.50;;;0.50;;
9520;SDS011;4798;41.574;23.734;2024-02-15T03:48:03;0.60;;;0.50;;
9520;SDS011;4798;41.574;23.734;2024-02-15T03:50:34;0.60;;;0.60;;
9520;SDS011;4798;41.574;23.734;2024-02-15T03:53:03;0.63;;;0.50;;
9520;SDS011;4798;41.574;23.734;2024-02-15T03:55:33;0.40;;;0.30;;
9520;SDS011;4798;41.574;23.734;2024-02-15T03:58:02;0.63;;;0.63;;
9520;SDS011;4798;41.574;23.734;2024-02-15T04:00:32;1.03;;;0.40;;
9520;SDS011;4798;41.574;23.734;2024-02-15T04:03:00;1.03;;;1.03;;
9520;SDS011;4798;41.574;23.734;2024-02-15T04:05:32;0.60;;;0.47;;
9520;SDS011;4798;41.574;23.734;2024-02-15T04:08:01;2.27;;;0.60;;
9520;SDS011;4798;41.574;23.734;2024-02-15T04:10:32;0.50;;;0.50;;
9520;SDS011;4798;41.574;23.734;2024-02-15T04:13:00;0.40;;;0.30;;
9520;SDS011;4798;41.574;23.734;2024-02-15T04:15:29;0.93;;;0.93;;
9520;SDS011;4798;41.574;23.734;2024-02-15T04:17:58;7.13;;;1.70;;
9520;SDS011;4798;41.574;23.734;2024-02-15T04:20:27;2.10;;;2.00;;
9520;SDS011;4798;41.574;23.734;2024-02-15T04:22:57;0.60;;;0.60;;
9520;SDS011;4798;41.574;23.734;2024-02-15T04:25:26;5.40;;;0.73;;
9520;SDS011;4798;41.574;23.734;2024-02-15T04:27:55;1.03;;;0.93;;
9520;SDS011;4798;41.574;23.734;2024-02-15T04:30:30;2.20;;;0.50;;
9520;SDS011;4798;41.574;23.734;2024-02-15T04:33:01;0.60;;;0.37;;
9520;SDS011;4798;41.574;23.734;2024-02-15T04:35:30;0.60;;;0.60;;
9520;SDS011;4798;41.574;23.734;2024-02-15T04:38:01;0.40;;;0.40;;
9520;SDS011;4798;41.574;23.734;2024-02-15T04:40:30;1.07;;;1.00;;
9520;SDS011;4798;41.574;23.734;2024-02-15T04:42:59;2.10;;;1.03;;
9520;SDS011;4798;41.574;23.734;2024-02-15T04:45:31;0.50;;;0.47;;
9520;SDS011;4798;41.574;23.734;2024-02-15T04:47:59;1.03;;;1.03;;
9520;SDS011;4798;41.574;23.734;2024-02-15T04:50:29;1.23;;;0.90;;
9520;SDS011;4798;41.574;23.734;2024-02-15T04:52:58;0.50;;;0.40;;
9520;SDS011;4798;41.574;23.734;2024-02-15T04:55:28;1.30;;;1.20;;
9520;SDS011;4798;41.574;23.734;2024-02-15T04:57:58;1.60;;;1.50;;
9520;SDS011;4798;41.574;23.734;2024-02-15T05:00:27;1.20;;;1.10;;
9520;SDS011;4798;41.574;23.734;2024-02-15T05:02:56;2.37;;;1.07;;
9520;SDS011;4798;41.574;23.734;2024-02-15T05:05:25;0.40;;;0.33;;
9520;SDS011;4798;41.574;23.734;2024-02-15T05:07:56;0.70;;;0.70;;
9520;SDS011;4798;41.574;23.734;2024-02-15T05:10:25;1.77;;;1.13;;
9520;SDS011;4798;41.574;23.734;2024-02-15T05:12:55;1.23;;;0.53;;
9520;SDS011;4798;41.574;23.734;2024-02-15T05:15:24;0.60;;;0.60;;
9520;SDS011;4798;41.574;23.734;2024-02-15T05:17:53;7.20;;;1.33;;
9520;SDS011;4798;41.574;23.734;2024-02-15T05:20:22;1.40;;;1.30;;
9520;SDS011;4798;41.574;23.734;2024-02-15T05:22:52;2.17;;;2.07;;
9520;SDS011;4798;41.574;23.734;2024-02-15T05:25:20;2.43;;;1.40;;
9520;SDS011;4798;41.574;23.734;2024-02-15T05:27:54;2.30;;;1.13;;
9520;SDS011;4798;41.574;23.734;2024-02-15T05:30:24;1.13;;;1.13;;
9520;SDS011;4798;41.574;23.734;2024-02-15T05:32:53;0.60;;;0.60;;
9520;SDS011;4798;41.574;23.734;2024-02-15T05:35:23;1.47;;;1.37;;
9520;SDS011;4798;41.574;23.734;2024-02-15T05:37:53;3.90;;;1.80;;
9520;SDS011;4798;41.574;23.734;2024-02-15T05:40:23;1.63;;;1.53;;
9520;SDS011;4798;41.574;23.734;2024-02-15T05:42:56;1.90;;;1.80;;
9520;SDS011;4798;41.574;23.734;2024-02-15T05:45:29;2.00;;;1.90;;
9520;SDS011;4798;41.574;23.734;2024-02-15T05:48:02;1.67;;;1.57;;
9520;SDS011;4798;41.574;23.734;2024-02-15T05:50:34;2.17;;;2.07;;
9520;SDS011;4798;41.574;23.734;2024-02-15T05:53:03;0.93;;;0.90;;
9520;SDS011;4798;41.574;23.734;2024-02-15T05:55:35;1.23;;;1.17;;
9520;SDS011;4798;41.574;23.734;2024-02-15T05:58:08;1.83;;;1.27;;
9520;SDS011;4798;41.574;23.734;2024-02-15T06:00:37;0.80;;;0.80;;
9520;SDS011;4798;41.574;23.734;2024-02-15T06:03:08;1.90;;;1.80;;
9520;SDS011;4798;41.574;23.734;2024-02-15T06:05:38;1.40;;;1.30;;
9520;SDS011;4798;41.574;23.734;2024-02-15T06:08:08;1.43;;;1.33;;
9520;SDS011;4798;41.574;23.734;2024-02-15T06:10:39;1.30;;;1.23;;
9520;SDS011;4798;41.574;23.734;2024-02-15T06:13:09;2.80;;;2.60;;
9520;SDS011;4798;41.574;23.734;2024-02-15T06:15:38;2.10;;;2.00;;
9520;SDS011;4798;41.574;23.734;2024-02-15T06:18:06;9.40;;;1.87;;
9520;SDS011;4798;41.574;23.734;2024-02-15T06:20:39;3.13;;;3.03;;
9520;SDS011;4798;41.574;23.734;2024-02-15T06:23:07;2.00;;;1.90;;
9520;SDS011;4798;41.574;23.734;2024-02-15T06:25:36;4.77;;;3.17;;
9520;SDS011;4798;41.574;23.734;2024-02-15T06:28:05;1.83;;;1.40;;
9520;SDS011;4798;41.574;23.734;2024-02-15T06:30:41;2.50;;;2.33;;
9520;SDS011;4798;41.574;23.734;2024-02-15T06:33:27;1.60;;;1.57;;
9520;SDS011;4798;41.574;23.734;2024-02-15T06:36:13;2.33;;;1.97;;
9520;SDS011;4798;41.574;23.734;2024-02-15T06:38:59;1.83;;;1.73;;
9520;SDS011;4798;41.574;23.734;2024-02-15T06:41:45;2.43;;;1.13;;
9520;SDS011;4798;41.574;23.734;2024-02-15T06:44:13;1.40;;;1.30;;
9520;SDS011;4798;41.574;23.734;2024-02-15T06:46:43;1.87;;;1.77;;
9520;SDS011;4798;41.574;23.734;2024-02-15T06:49:13;2.30;;;2.20;;
9520;SDS011;4798;41.574;23.734;2024-02-15T06:51:42;1.30;;;1.20;;
9520;SDS011;4798;41.574;23.734;2024-02-15T06:54:15;5.20;;;1.40;;
9520;SDS011;4798;41.574;23.734;2024-02-15T06:56:45;2.10;;;1.73;;
9520;SDS011;4798;41.574;23.734;2024-02-15T06:59:14;1.33;;;1.27;;
9520;SDS011;4798;41.574;23.734;2024-02-15T07:01:45;7.23;;;3.00;;
9520;SDS011;4798;41.574;23.734;2024-02-15T07:04:14;0.90;;;0.87;;
9520;SDS011;4798;41.574;23.734;2024-02-15T07:06:42;2.40;;;2.30;;
9520;SDS011;4798;41.574;23.734;2024-02-15T07:09:15;2.50;;;1.73;;
9520;SDS011;4798;41.574;23.734;2024-02-15T07:11:46;3.27;;;3.17;;
9520;SDS011;4798;41.574;23.734;2024-02-15T07:14:17;1.53;;;1.33;;
9520;SDS011;4798;41.574;23.734;2024-02-15T07:16:48;4.27;;;3.63;;
9520;SDS011;4798;41.574;23.734;2024-02-15T07:19:18;13.33;;;1.73;;
9520;SDS011;4798;41.574;23.734;2024-02-15T07:21:47;1.67;;;1.50;;
9520;SDS011;4798;41.574;23.734;2024-02-15T07:24:17;1.43;;;1.33;;
9520;SDS011;4798;41.574;23.734;2024-02-15T07:26:47;1.63;;;1.27;;
9520;SDS011;4798;41.574;23.734;2024-02-15T07:29:19;2.50;;;1.63;;
9520;SDS011;4798;41.574;23.734;2024-02-15T07:31:51;1.67;;;1.57;;
9520;SDS011;4798;41.574;23.734;2024-02-15T07:34:20;3.90;;;1.40;;
9520;SDS011;4798;41.574;23.734;2024-02-15T07:36:50;2.27;;;1.50;;
9520;SDS011;4798;41.574;23.734;2024-02-15T07:39:18;2.60;;;2.40;;
9520;SDS011;4798;41.574;23.734;2024-02-15T07:41:51;0.40;;;0.40;;
9520;SDS011;4798;41.574;23.734;2024-02-15T07:44:19;1.10;;;1.10;;
9520;SDS011;4798;41.574;23.734;2024-02-15T07:46:48;1.03;;;0.93;;
9520;SDS011;4798;41.574;23.734;2024-02-15T07:49:18;2.77;;;0.73;;
9520;SDS011;4798;41.574;23.734;2024-02-15T07:51:47;1.60;;;1.50;;
9520;SDS011;4798;41.574;23.734;2024-02-15T07:54:20;6.80;;;1.30;;
9520;SDS011;4798;41.574;23.734;2024-02-15T07:56:49;1.37;;;0.70;;
9520;SDS011;4798;41.574;23.734;2024-02-15T07:59:18;2.27;;;2.07;;
9520;SDS011;4798;41.574;23.734;2024-02-15T08:01:47;3.57;;;0.70;;
9520;SDS011;4798;41.574;23.734;2024-02-15T08:04:18;3.70;;;0.40;;
9520;SDS011;4798;41.574;23.734;2024-02-15T08:06:48;1.17;;;1.13;;
9520;SDS011;4798;41.574;23.734;2024-02-15T08:09:17;0.70;;;0.70;;
9520;SDS011;4798;41.574;23.734;2024-02-15T08:11:48;0.53;;;0.40;;
9520;SDS011;4798;41.574;23.734;2024-02-15T08:14:17;1.13;;;1.00;;
9520;SDS011;4798;41.574;23.734;2024-02-15T08:16:47;1.10;;;1.00;;
9520;SDS011;4798;41.574;23.734;2024-02-15T08:19:16;0.50;;;0.50;;
9520;SDS011;4798;41.574;23.734;2024-02-15T08:21:46;0.80;;;0.80;;
9520;SDS011;4798;41.574;23.734;2024-02-15T08:24:17;0.97;;;0.87;;
9520;SDS011;4798;41.574;23.734;2024-02-15T08:26:46;0.70;;;0.70;;
9520;SDS011;4798;41.574;23.734;2024-02-15T08:29:15;1.63;;;1.57;;
9520;SDS011;4798;41.574;23.734;2024-02-15T08:31:43;1.00;;;0.93;;
9520;SDS011;4798;41.574;23.734;2024-02-15T08:34:12;0.93;;;0.93;;
9520;SDS011;4798;41.574;23.734;2024-02-15T08:36:41;0.60;;;0.40;;
9520;SDS011;4798;41.574;23.734;2024-02-15T08:39:11;0.80;;;0.80;;
9520;SDS011;4798;41.574;23.734;2024-02-15T08:41:43;0.90;;;0.80;;
9520;SDS011;4798;41.574;23.734;2024-02-15T08:44:13;1.90;;;0.97;;
9520;SDS011;4798;41.574;23.734;2024-02-15T08:46:42;1.13;;;0.93;;
9520;SDS011;4798;41.574;23.734;2024-02-15T08:49:13;0.73;;;0.60;;
9520;SDS011;4798;41.574;23.734;2024-02-15T08:51:42;0.43;;;0.30;;
9520;SDS011;4798;41.574;23.734;2024-02-15T08:54:12;1.00;;;0.60;;
9520;SDS011;4798;41.574;23.734;2024-02-15T08:56:41;1.60;;;1.50;;
9520;SDS011;4798;41.574;23.734;2024-02-15T08:59:10;0.70;;;0.70;;
9520;SDS011;4798;41.574;23.734;2024-02-15T09:01:38;0.50;;;0.37;;
9520;SDS011;4798;41.574;23.734;2024-02-15T09:04:07;0.70;;;0.60;;
9520;SDS011;4798;41.574;23.734;2024-02-15T09:06:35;1.70;;;1.37;;
9520;SDS011;4798;41.574;23.734;2024-02-15T09:09:04;1.70;;;0.93;;
9520;SDS011;4798;41.574;23.734;2024-02-15T09:11:34;2.43;;;0.60;;
9520;SDS011;4798;41.574;23.734;2024-02-15T09:14:03;1.13;;;1.03;;
9520;SDS011;4798;41.574;23.734;2024-02-15T09:16:31;0.83;;;0.80;;
9520;SDS011;4798;41.574;23.734;2024-02-15T09:19:00;0.57;;;0.57;;
9520;SDS011;4798;41.574;23.734;2024-02-15T09:21:29;2.00;;;0.90;;
9520;SDS011;4798;41.574;23.734;2024-02-15T09:23:57;0.50;;;0.50;;
9520;SDS011;4798;41.574;23.734;2024-02-15T09:26:26;0.60;;;0.40;;
9520;SDS011;4798;41.574;23.734;2024-02-15T09:28:56;1.30;;;1.20;;
9520;SDS011;4798;41.574;23.734;2024-02-15T09:31:25;1.80;;;0.53;;
9520;SDS011;4798;41.574;23.734;2024-02-15T09:33:54;0.80;;;0.80;;
9520;SDS011;4798;41.574;23.734;2024-02-15T09:36:25;0.40;;;0.40;;
9520;SDS011;4798;41.574;23.734;2024-02-15T09:38:55;0.50;;;0.50;;
9520;SDS011;4798;41.574;23.734;2024-02-15T09:41:25;0.40;;;0.37;;
9520;SDS011;4798;41.574;23.734;2024-02-15T09:43:54;0.70;;;0.70;;
9520;SDS011;4798;41.574;23.734;2024-02-15T09:46:24;0.57;;;0.57;;
9520;SDS011;4798;41.574;23.734;2024-02-15T09:48:56;0.60;;;0.60;;
9520;SDS011;4798;41.574;23.734;2024-02-15T09:51:26;1.10;;;1.10;;
9520;SDS011;4798;41.574;23.734;2024-02-15T09:53:57;1.70;;;0.60;;
9520;SDS011;4798;41.574;23.734;2024-02-15T09:56:27;1.03;;;0.50;;
9520;SDS011;4798;41.574;23.734;2024-02-15T09:58:59;0.80;;;0.77;;
9520;SDS011;4798;41.574;23.734;2024-02-15T10:01:30;0.40;;;0.30;;
9520;SDS011;4798;41.574;23.734;2024-02-15T10:04:00;1.23;;;0.50;;
9520;SDS011;4798;41.574;23.734;2024-02-15T10:06:34;1.17;;;1.07;;
9520;SDS011;4798;41.574;23.734;2024-02-15T10:11:57;0.50;;;0.50;;
9520;SDS011;4798;41.574;23.734;2024-02-15T10:14:28;1.80;;;1.70;;
9520;SDS011;4798;41.574;23.734;2024-02-15T10:17:05;0.77;;;0.70;;
9520;SDS011;4798;41.574;23.734;2024-02-15T10:19:36;4.50;;;2.03;;
9520;SDS011;4798;41.574;23.734;2024-02-15T10:22:06;1.07;;;1.07;;
9520;SDS011;4798;41.574;23.734;2024-02-15T10:24:35;2.73;;;0.77;;
9520;SDS011;4798;41.574;23.734;2024-02-15T10:27:06;1.90;;;1.50;;
9520;SDS011;4798;41.574;23.734;2024-02-15T10:29:37;1.27;;;1.17;;
9520;SDS011;4798;41.574;23.734;2024-02-15T10:32:08;0.77;;;0.77;;
9520;SDS011;4798;41.574;23.734;2024-02-15T10:34:43;1.10;;;1.00;;
9520;SDS011;4798;41.574;23.734;2024-02-15T10:37:13;1.40;;;1.30;;
9520;SDS011;4798;41.574;23.734;2024-02-15T10:39:43;0.90;;;0.70;;
9520;SDS011;4798;41.574;23.734;2024-02-15T10:42:12;0.83;;;0.83;;
9520;SDS011;4798;41.574;23.734;2024-02-15T10:44:42;0.70;;;0.60;;
9520;SDS011;4798;41.574;23.734;2024-02-15T10:47:13;1.23;;;1.03;;
9520;SDS011;4798;41.574;23.734;2024-02-15T10:49:42;6.90;;;1.63;;
9520;SDS011;4798;41.574;23.734;2024-02-15T10:52:14;1.47;;;1.37;;
9520;SDS011;4798;41.574;23.734;2024-02-15T10:54:46;4.57;;;1.07;;
9520;SDS011;4798;41.574;23.734;2024-02-15T10:57:20;2.33;;;1.60;;
9520;SDS011;4798;41.574;23.734;2024-02-15T10:59:54;0.40;;;0.40;;
9520;SDS011;4798;41.574;23.734;2024-02-15T11:02:29;0.67;;;0.47;;
9520;SDS011;4798;41.574;23.734;2024-02-15T11:05:01;0.50;;;0.50;;
9520;SDS011;4798;41.574;23.734;2024-02-15T11:07:32;0.60;;;0.40;;
9520;SDS011;4798;41.574;23.734;2024-02-15T11:10:01;0.40;;;0.30;;
9520;SDS011;4798;41.574;23.734;2024-02-15T11:12:34;0.50;;;0.30;;
9520;SDS011;4798;41.574;23.734;2024-02-15T11:15:05;0.53;;;0.50;;
9520;SDS011;4798;41.574;23.734;2024-02-15T11:17:46;0.40;;;0.40;;
9520;SDS011;4798;41.574;23.734;2024-02-15T11:23:26;0.30;;;0.20;;
9520;SDS011;4798;41.574;23.734;2024-02-15T11:25:58;0.40;;;0.30;;
9520;SDS011;4798;41.574;23.734;2024-02-15T11:28:37;0.40;;;0.40;;
9520;SDS011;4798;41.574;23.734;2024-02-15T11:31:08;0.40;;;0.30;;
9520;SDS011;4798;41.574;23.734;2024-02-15T11:33:43;0.40;;;0.30;;
9520;SDS011;4798;41.574;23.734;2024-02-15T11:36:12;0.40;;;0.40;;
9520;SDS011;4798;41.574;23.734;2024-02-15T11:38:43;0.47;;;0.40;;
9520;SDS011;4798;41.574;23.734;2024-02-15T11:41:16;0.60;;;0.57;;
9520;SDS011;4798;41.574;23.734;2024-02-15T11:43:50;0.40;;;0.30;;
9520;SDS011;4798;41.574;23.734;2024-02-15T11:46:23;0.50;;;0.40;;
9520;SDS011;4798;41.574;23.734;2024-02-15T11:48:58;1.23;;;0.30;;
9520;SDS011;4798;41.574;23.734;2024-02-15T11:51:31;4.43;;;0.40;;
9520;SDS011;4798;41.574;23.734;2024-02-15T11:54:05;0.50;;;0.47;;
9520;SDS011;4798;41.574;23.734;2024-02-15T11:56:53;0.53;;;0.40;;
9520;SDS011;4798;41.574;23.734;2024-02-15T11:59:38;1.00;;;0.57;;
9520;SDS011;4798;41.574;23.734;2024-02-15T12:02:20;0.40;;;0.30;;
9520;SDS011;4798;41.574;23.734;2024-02-15T12:05:07;0.50;;;0.30;;
9520;SDS011;4798;41.574;23.734;2024-02-15T12:07:53;0.30;;;0.20;;
9520;SDS011;4798;41.574;23.734;2024-02-15T12:10:40;0.40;;;0.40;;
9520;SDS011;4798;41.574;23.734;2024-02-15T12:16:58;0.50;;;0.43;;
9520;SDS011;4798;41.574;23.734;2024-02-15T12:19:48;0.30;;;0.30;;
9520;SDS011;4798;41.574;23.734;2024-02-15T12:22:20;0.73;;;0.60;;
9520;SDS011;4798;41.574;23.734;2024-02-15T12:24:52;0.63;;;0.40;;
9520;SDS011;4798;41.574;23.734;2024-02-15T12:27:23;0.40;;;0.20;;
9520;SDS011;4798;41.574;23.734;2024-02-15T12:29:54;0.40;;;0.30;;
9520;SDS011;4798;41.574;23.734;2024-02-15T12:32:25;0.40;;;0.30;;
9520;SDS011;4798;41.574;23.734;2024-02-15T12:35:09;0.50;;;0.43;;
9520;SDS011;4798;41.574;23.734;2024-02-15T12:37:44;0.40;;;0.30;;
9520;SDS011;4798;41.574;23.734;2024-02-15T12:40:13;0.90;;;0.50;;
9520;SDS011;4798;41.574;23.734;2024-02-15T12:42:44;0.40;;;0.40;;
9520;SDS011;4798;41.574;23.734;2024-02-15T12:45:16;0.50;;;0.50;;
9520;SDS011;4798;41.574;23.734;2024-02-15T12:47:49;0.40;;;0.30;;
9520;SDS011;4798;41.574;23.734;2024-02-15T12:50:19;0.40;;;0.30;;
9520;SDS011;4798;41.574;23.734;2024-02-15T12:52:51;0.40;;;0.30;;
9520;SDS011;4798;41.574;23.734;2024-02-15T12:55:21;0.37;;;0.30;;
9520;SDS011;4798;41.574;23.734;2024-02-15T12:57:51;0.40;;;0.40;;
9520;SDS011;4798;41.574;23.734;2024-02-15T13:00:23;0.30;;;0.20;;
9520;SDS011;4798;41.574;23.734;2024-02-15T13:02:55;0.40;;;0.30;;
9520;SDS011;4798;41.574;23.734;2024-02-15T13:05:26;0.63;;;0.50;;
9520;SDS011;4798;41.574;23.734;2024-02-15T13:07:56;0.50;;;0.50;;
9520;SDS011;4798;41.574;23.734;2024-02-15T13:10:25;0.47;;;0.30;;
9520;SDS011;4798;41.574;23.734;2024-02-15T13:12:56;7.10;;;0.30;;
9520;SDS011;4798;41.574;23.734;2024-02-15T13:15:24;0.40;;;0.30;;
9520;SDS011;4798;41.574;23.734;2024-02-15T13:18:00;0.63;;;0.63;;
9520;SDS011;4798;41.574;23.734;2024-02-15T13:20:32;2.00;;;0.50;;
9520;SDS011;4798;41.574;23.734;2024-02-15T13:23:04;1.00;;;1.00;;
9520;SDS011;4798;41.574;23.734;2024-02-15T13:25:36;1.83;;;0.30;;
9520;SDS011;4798;41.574;23.734;2024-02-15T13:28:08;0.50;;;0.30;;
9520;SDS011;4798;41.574;23.734;2024-02-15T13:30:37;0.40;;;0.30;;
9520;SDS011;4798;41.574;23.734;2024-02-15T13:33:06;1.50;;;0.30;;
9520;SDS011;4798;41.574;23.734;2024-02-15T13:35:34;6.83;;;0.50;;
9520;SDS011;4798;41.574;23.734;2024-02-15T13:38:05;0.40;;;0.30;;
9520;SDS011;4798;41.574;23.734;2024-02-15T13:40:42;0.73;;;0.53;;
9520;SDS011;4798;41.574;23.734;2024-02-15T13:43:11;5.10;;;0.30;;
9520;SDS011;4798;41.574;23.734;2024-02-15T13:45:40;0.80;;;0.33;;
9520;SDS011;4798;41.574;23.734;2024-02-15T13:48:11;0.40;;;0.30;;
9520;SDS011;4798;41.574;23.734;2024-02-15T13:50:42;0.53;;;0.53;;
9520;SDS011;4798;41.574;23.734;2024-02-15T13:53:12;2.77;;;0.30;;
9520;SDS011;4798;41.574;23.734;2024-02-15T13:55:41;0.30;;;0.30;;
9520;SDS011;4798;41.574;23.734;2024-02-15T13:58:10;0.60;;;0.30;;
9520;SDS011;4798;41.574;23.734;2024-02-15T14:00:40;0.40;;;0.30;;
9520;SDS011;4798;41.574;23.734;2024-02-15T14:03:10;2.27;;;1.43;;
9520;SDS011;4798;41.574;23.734;2024-02-15T14:05:42;0.90;;;0.90;;
9520;SDS011;4798;41.574;23.734;2024-02-15T14:08:14;0.60;;;0.60;;
9520;SDS011;4798;41.574;23.734;2024-02-15T14:10:43;0.43;;;0.30;;
9520;SDS011;4798;41.574;23.734;2024-02-15T14:13:11;0.30;;;0.20;;
9520;SDS011;4798;41.574;23.734;2024-02-15T14:18:29;0.37;;;0.20;;
9520;SDS011;4798;41.574;23.734;2024-02-15T14:20:58;0.50;;;0.40;;
9520;SDS011;4798;41.574;23.734;2024-02-15T14:23:30;0.40;;;0.27;;
9520;SDS011;4798;41.574;23.734;2024-02-15T14:26:00;0.40;;;0.20;;
9520;SDS011;4798;41.574;23.734;2024-02-15T14:28:29;0.40;;;0.30;;
9520;SDS011;4798;41.574;23.734;2024-02-15T14:30:58;0.50;;;0.30;;
9520;SDS011;4798;41.574;23.734;2024-02-15T14:33:43;0.40;;;0.20;;
9520;SDS011;4798;41.574;23.734;2024-02-15T14:36:13;0.40;;;0.30;;
9520;SDS011;4798;41.574;23.734;2024-02-15T14:38:43;0.70;;;0.30;;
9520;SDS011;4798;41.574;23.734;2024-02-15T14:41:13;0.30;;;0.30;;
9520;SDS011;4798;41.574;23.734;2024-02-15T14:43:49;0.40;;;0.30;;
9520;SDS011;4798;41.574;23.734;2024-02-15T14:46:21;0.40;;;0.40;;
9520;SDS011;4798;41.574;23.734;2024-02-15T14:48:50;0.67;;;0.67;;
9520;SDS011;4798;41.574;23.734;2024-02-15T14:51:22;0.40;;;0.30;;
9520;SDS011;4798;41.574;23.734;2024-02-15T14:53:54;0.40;;;0.20;;
9520;SDS011;4798;41.574;23.734;2024-02-15T14:56:25;0.40;;;0.30;;
9520;SDS011;4798;41.574;23.734;2024-02-15T14:58:54;0.40;;;0.20;;
9520;SDS011;4798;41.574;23.734;2024-02-15T15:01:22;0.50;;;0.30;;
9520;SDS011;4798;41.574;23.734;2024-02-15T15:03:54;0.50;;;0.30;;
9520;SDS011;4798;41.574;23.734;2024-02-15T15:06:25;0.40;;;0.30;;
9520;SDS011;4798;41.574;23.734;2024-02-15T15:09:12;0.40;;;0.30;;
9520;SDS011;4798;41.574;23.734;2024-02-15T15:11:59;0.40;;;0.30;;
9520;SDS011;4798;41.574;23.734;2024-02-15T15:14:45;0.40;;;0.30;;
9520;SDS011;4798;41.574;23.734;2024-02-15T15:17:15;0.50;;;0.30;;
9520;SDS011;4798;41.574;23.734;2024-02-15T15:19:44;0.50;;;0.37;;
9520;SDS011;4798;41.574;23.734;2024-02-15T15:22:13;1.07;;;0.67;;
9520;SDS011;4798;41.574;23.734;2024-02-15T15:24:43;0.40;;;0.20;;
9520;SDS011;4798;41.574;23.734;2024-02-15T15:27:12;1.27;;;0.47;;
9520;SDS011;4798;41.574;23.734;2024-02-15T15:29:41;0.50;;;0.30;;
9520;SDS011;4798;41.574;23.734;2024-02-15T15:32:10;0.77;;;0.70;;
9520;SDS011;4798;41.574;23.734;2024-02-15T15:34:38;0.93;;;0.90;;